Time;durP1;ratioP1;P1;durP2;ratioP2;P2;SDS_P1;SDS_P2;PMS_P1;PMS_P2;Temp;Humidity;BMP_temperature;BMP_pressure;BME280_temperature;BME280_humidity;BME280_pressure;Samples;Min_cycle;Max_cycle;Signal;HPM_P1;HPM_P2
2021/09/06 00:05:47;;;;;;;1999.90;999.90;;;;;;;15.80;68.15;101902.44;15759325;28;20377;-55
2021/09/06 00:13:21;;;;;;;1999.90;999.90;;;;;;;15.77;67.82;101903.13;15753117;28;20068;-57
2021/09/06 00:20:56;;;;;;;1999.90;999.90;;;;;;;15.68;68.26;101897.53;15760236;28;20045;-58
2021/09/06 00:28:30;;;;;;;1999.90;999.90;;;;;;;15.68;67.77;101896.72;15773860;28;20047;-58
2021/09/06 00:36:02;;;;;;;1999.90;999.90;;;;;;;15.47;68.40;101891.81;15775098;28;20045;-55
2021/09/06 00:43:36;;;;;;;1999.90;999.90;;;;;;;15.05;69.28;101887.19;15756855;28;20036;-55
2021/09/06 00:51:09;;;;;;;1999.90;999.90;;;;;;;15.15;69.09;101881.22;15778168;28;20055;-58
2021/09/06 00:58:43;;;;;;;1999.90;999.90;;;;;;;15.11;68.82;101888.66;15789148;28;20476;-55
2021/09/06 01:06:16;;;;;;;1999.90;999.90;;;;;;;15.29;68.47;101885.44;15766766;28;20059;-56
2021/09/06 01:14:22;;;;;;;1999.90;999.90;;;;;;;15.16;68.84;101888.47;15763622;28;20127;-59
2021/09/06 01:21:55;;;;;;;1999.90;999.90;;;;;;;15.01;68.98;101889.84;15781368;28;20097;-58
2021/09/06 01:30:02;;;;;;;1999.90;999.90;;;;;;;14.90;69.86;101885.72;15753223;28;20512;-55
2021/09/06 01:37:39;;;;;;;1999.90;999.90;;;;;;;14.89;70.08;101895.31;15752615;28;20246;-60
2021/09/06 01:45:14;;;;;;;1999.90;999.90;;;;;;;14.82;70.22;101895.84;15779842;28;20111;-57
2021/09/06 01:52:46;;;;;;;1999.90;999.90;;;;;;;14.56;70.87;101892.22;15761968;28;20390;-59
2021/09/06 02:00:20;;;;;;;1999.90;999.90;;;;;;;14.46;71.13;101890.59;15784017;28;20478;-63
2021/09/06 02:07:53;;;;;;;1999.90;999.90;;;;;;;14.31;71.46;101886.28;15770963;28;20070;-55
2021/09/06 02:15:30;;;;;;;1999.90;999.90;;;;;;;14.25;71.71;101887.56;15768517;28;20566;-58
2021/09/06 02:23:04;;;;;;;1999.90;999.90;;;;;;;14.10;71.83;101896.50;15795360;28;20549;-56
2021/09/06 02:30:39;;;;;;;1999.90;999.90;;;;;;;13.98;72.16;101904.75;15786898;28;20040;-58
2021/09/06 02:38:14;;;;;;;1999.90;999.90;;;;;;;13.94;72.03;101893.31;15756768;28;20086;-57
2021/09/06 02:45:49;;;;;;;1999.90;999.90;;;;;;;13.89;72.09;101898.28;15726033;28;20036;-59
2021/09/06 02:53:22;;;;;;;1999.90;999.90;;;;;;;13.74;72.52;101894.75;15771727;28;20079;-57
2021/09/06 03:00:56;;;;;;;1999.90;999.90;;;;;;;13.68;72.35;101889.66;15785483;28;20062;-56
2021/09/06 03:08:29;;;;;;;1999.90;999.90;;;;;;;13.58;72.67;101882.34;15767197;28;20105;-58
2021/09/06 03:16:05;;;;;;;1999.90;999.90;;;;;;;13.62;72.46;101888.97;15796780;28;20111;-56
2021/09/06 03:23:38;;;;;;;1999.90;999.90;;;;;;;13.50;72.89;101883.16;15781738;28;20144;-58
2021/09/06 03:31:12;;;;;;;1999.90;999.90;;;;;;;13.46;73.01;101876.56;15776285;28;20071;-60
2021/09/06 03:38:45;;;;;;;1999.90;999.90;;;;;;;13.32;73.28;101875.81;15773369;28;20127;-58
2021/09/06 03:46:20;;;;;;;1999.90;999.90;;;;;;;13.27;73.03;101866.41;15794573;28;20064;-57
2021/09/06 03:53:55;;;;;;;1999.90;999.90;;;;;;;13.27;72.70;101866.41;15759232;28;20048;-59
2021/09/06 04:01:32;;;;;;;1999.90;999.90;;;;;;;13.21;72.94;101870.50;15738351;28;20405;-57
2021/09/06 04:09:05;;;;;;;1999.90;999.90;;;;;;;13.04;73.39;101864.81;15761492;28;20521;-60
2021/09/06 04:16:39;;;;;;;1999.90;999.90;;;;;;;13.09;73.17;101873.06;15773337;28;20048;-57
2021/09/06 04:24:11;;;;;;;1999.90;999.90;;;;;;;12.99;73.20;101874.16;15776924;28;20094;-57
2021/09/06 04:31:45;;;;;;;1999.90;999.90;;;;;;;13.03;73.23;101868.75;15763346;28;20048;-57
2021/09/06 04:39:18;;;;;;;1999.90;999.90;;;;;;;12.97;73.60;101875.63;15790706;28;20051;-57
2021/09/06 04:46:54;;;;;;;1999.90;999.90;;;;;;;13.07;73.75;101874.53;15731256;28;20554;-55
2021/09/06 04:54:26;;;;;;;1999.90;999.90;;;;;;;13.09;73.85;101883.44;15793580;28;20099;-58
2021/09/06 05:02:00;;;;;;;1999.90;999.90;;;;;;;13.21;73.49;101884.50;15768866;28;20052;-55
2021/09/06 05:09:33;;;;;;;1999.90;999.90;;;;;;;13.36;73.61;101900.09;15760551;28;20120;-55
2021/09/06 05:17:07;;;;;;;1999.90;999.90;;;;;;;13.72;72.76;101908.28;15789533;28;20036;-55
2021/09/06 05:24:40;;;;;;;1999.90;999.90;;;;;;;13.98;72.92;101907.53;15788067;28;20501;-58
2021/09/06 05:32:17;;;;;;;1999.90;999.90;;;;;;;14.49;71.79;101918.03;15756150;28;20047;-58
2021/09/06 05:39:50;;;;;;;1999.90;999.90;;;;;;;14.64;71.37;101919.50;15743589;28;20479;-58
2021/09/06 05:47:24;;;;;;;1999.90;999.90;;;;;;;14.68;70.76;101921.28;15770771;28;20048;-57
2021/09/06 05:54:56;;;;;;;1999.90;999.90;;;;;;;15.05;69.39;101938.63;15752070;28;20563;-58
2021/09/06 06:02:30;;;;;;;1999.90;999.90;;;;;;;15.40;68.03;101944.94;15768347;28;20044;-55
2021/09/06 06:10:04;;;;;;;1999.90;999.90;;;;;;;15.58;66.70;101940.09;15774045;28;20043;-55
2021/09/06 06:17:42;;;;;;;1999.90;999.90;;;;;;;16.20;64.58;101941.44;15770719;28;20481;-56
2021/09/06 06:25:16;;;;;;;1999.90;999.90;;;;;;;16.00;65.54;101937.44;15752291;28;20037;-55
2021/09/06 06:33:08;;;;;;;1999.90;999.90;;;;;;;16.89;63.51;101944.56;15782523;28;20120;-60
2021/09/06 06:40:50;;;;;;;1999.90;999.90;;;;;;;16.86;61.43;101942.41;15765132;28;20122;-56
2021/09/06 06:48:28;;;;;;;1999.90;999.90;;;;;;;17.78;60.08;101941.22;15791802;28;20068;-58
2021/09/06 06:56:02;;;;;;;1999.90;999.90;;;;;;;17.58;60.65;101943.75;15777630;28;20052;-54
2021/09/06 07:03:39;;;;;;;1999.90;999.90;;;;;;;18.97;60.22;101958.66;15780845;28;20056;-55
2021/09/06 07:11:12;;;;;;;1999.90;999.90;;;;;;;19.20;56.52;101973.88;15808040;28;20035;-57
2021/09/06 07:18:47;;;;;;;1999.90;999.90;;;;;;;19.86;57.82;101978.88;15820798;28;20475;-58
2021/09/06 07:26:19;;;;;;;1999.90;999.90;;;;;;;19.72;56.24;101989.84;15824786;28;20036;-62
2021/09/06 07:33:56;;;;;;;1999.90;999.90;;;;;;;19.75;55.83;101980.63;15831372;28;20039;-58
2021/09/06 07:41:29;;;;;;;1999.90;999.90;;;;;;;20.66;54.77;101977.56;15852570;28;20555;-55
2021/09/06 07:49:03;;;;;;;1999.90;999.90;;;;;;;20.98;54.26;101978.22;15846403;28;20050;-55
2021/09/06 07:56:38;;;;;;;1999.90;999.90;;;;;;;21.47;52.52;101979.63;15800216;28;20486;-58
2021/09/06 08:04:13;;;;;;;1999.90;999.90;;;;;;;21.69;51.83;101981.66;15808477;28;20052;-61
2021/09/06 08:11:48;;;;;;;1999.90;999.90;;;;;;;22.00;53.10;101988.25;15841643;28;20051;-61
2021/09/06 08:19:29;;;;;;;1999.90;999.90;;;;;;;22.41;50.36;101984.47;15825041;28;20044;-61
2021/09/06 08:27:02;;;;;;;1999.90;999.90;;;;;;;22.38;48.76;101988.06;15809164;28;20056;-59
2021/09/06 08:34:36;;;;;;;;;;;;;;;22.94;49.48;101997.81;15809282;28;20040;-55
2021/09/06 08:42:09;;;;;;;1999.90;999.90;;;;;;;23.52;47.58;101994.38;15765899;28;20358;-57
2021/09/06 08:49:44;;;;;;;;;;;;;;;24.01;49.05;102014.03;15757303;28;20452;-57
2021/09/06 08:57:16;;;;;;;1999.90;999.90;;;;;;;24.23;47.29;102017.88;15787518;28;20469;-57
2021/09/06 09:04:59;;;;;;;;;;;;;;;25.22;46.85;102016.81;15808662;28;20111;-58
2021/09/06 09:13:05;;;;;;;1999.90;999.90;;;;;;;25.18;47.25;102018.84;15798556;28;19928;-59
2021/09/06 09:21:07;;;;;;;1999.90;999.90;;;;;;;25.25;45.89;102011.13;15784870;28;20478;-59
2021/09/06 09:29:08;;;;;;;1999.90;999.90;;;;;;;25.94;44.24;102018.63;15762541;28;20102;-60
2021/09/06 09:37:00;;;;;;;1999.90;999.90;;;;;;;26.21;44.21;102009.63;15747127;28;20382;-58
2021/09/06 09:44:44;;;;;;;1999.90;999.90;;;;;;;25.64;44.67;101999.00;15745167;28;20043;-61
2021/09/06 09:52:51;;;;;;;1999.90;999.90;;;;;;;26.68;41.67;101991.19;15710753;28;20044;-56
2021/09/06 10:00:24;;;;;;;1999.90;999.90;;;;;;;27.54;39.57;102001.00;15743010;28;20048;-56
2021/09/06 10:08:00;;;;;;;1999.90;999.90;;;;;;;27.56;39.02;101994.84;15742272;28;20557;-56
2021/09/06 10:15:35;;;;;;;1999.90;999.90;;;;;;;27.82;39.70;101990.59;15740486;28;20080;-55
2021/09/06 10:23:12;;;;;;;1999.90;999.90;;;;;;;27.65;39.82;101991.53;15742139;28;20040;-57
2021/09/06 10:30:47;;;;;;;1999.90;999.90;;;;;;;28.84;38.95;101984.25;15796806;28;20119;-54
2021/09/06 10:38:21;;;;;;;1999.90;999.90;;;;;;;28.23;43.44;101982.03;15801987;28;20044;-56
2021/09/06 10:45:54;;;;;;;1999.90;999.90;;;;;;;29.79;36.25;101984.97;15803008;28;20052;-57
2021/09/06 10:53:28;;;;;;;1999.90;999.90;;;;;;;29.68;36.65;101983.53;15803654;28;20048;-57
2021/09/06 11:01:07;;;;;;;1999.90;999.90;;;;;;;30.09;37.36;101969.69;15804297;28;20516;-55
2021/09/06 11:08:42;;;;;;;1999.90;999.90;;;;;;;29.57;37.09;101973.00;15800601;28;20040;-54
2021/09/06 11:16:17;;;;;;;1999.90;999.90;;;;;;;30.00;36.75;101955.03;15800571;28;20562;-57
2021/09/06 11:23:52;;;;;;;1999.90;999.90;;;;;;;31.13;35.66;101967.63;15801646;28;20040;-55
2021/09/06 11:31:28;;;;;;;1999.90;999.90;;;;;;;29.69;35.72;101956.38;15722499;28;20519;-57
2021/09/06 11:39:01;;;;;;;1999.90;999.90;;;;;;;29.88;36.27;101959.34;15738988;28;20102;-57
2021/09/06 11:46:34;;;;;;;1999.90;999.90;;;;;;;30.22;37.43;101966.19;15737373;28;20518;-58
2021/09/06 11:54:12;;;;;;;1999.90;999.90;;;;;;;30.09;35.26;101954.50;15737741;28;20055;-57
2021/09/06 12:01:47;;;;;;;1999.90;999.90;;;;;;;31.70;34.15;101972.09;15736380;28;20127;-58
2021/09/06 12:09:20;;;;;;;1999.90;999.90;;;;;;;31.76;34.15;101950.09;15737216;28;20169;-57
2021/09/06 12:16:59;;;;;;;1999.90;999.90;;;;;;;30.80;33.90;101961.75;15737067;28;20051;-61
2021/09/06 12:24:33;;;;;;;1999.90;999.90;;;;;;;34.12;30.49;101957.06;15741765;28;20465;-61
2021/09/06 12:32:06;;;;;;;1999.90;999.90;;;;;;;31.70;32.87;101952.72;15799739;28;20040;-61
2021/09/06 12:39:39;;;;;;;1999.90;999.90;;;;;;;31.90;32.25;101946.06;15811057;28;20071;-60
2021/09/06 12:47:12;;;;;;;1999.90;999.90;;;;;;;33.87;30.58;101948.47;15810076;28;20071;-58
2021/09/06 12:54:46;;;;;;;1999.90;999.90;;;;;;;36.68;27.75;101939.19;15811489;28;20048;-61
2021/09/06 13:02:20;;;;;;;1999.90;999.90;;;;;;;36.11;27.93;101936.78;15809318;28;20044;-54
2021/09/06 13:09:53;;;;;;;1999.90;999.90;;;;;;;39.47;25.47;101932.06;15808179;28;20489;-58
2021/09/06 13:17:26;;;;;;;1999.90;999.90;;;;;;;36.75;25.30;101938.06;15810216;28;20104;-57
2021/09/06 13:25:01;;;;;;;1999.90;999.90;;;;;;;36.81;24.73;101931.13;15801577;28;20044;-59
2021/09/06 13:32:33;;;;;;;1999.90;999.90;;;;;;;34.78;28.64;101921.53;15745480;28;20067;-57
2021/09/06 13:40:08;;;;;;;1999.90;999.90;;;;;;;34.25;29.42;101916.47;15746332;28;20048;-53
2021/09/06 13:47:40;;;;;;;1999.90;999.90;;;;;;;30.58;33.47;101911.59;15744440;28;20060;-58
2021/09/06 13:55:14;;;;;;;1999.90;999.90;;;;;;;28.90;36.95;101917.31;15739414;28;20051;-59
2021/09/06 14:02:47;;;;;;;1999.90;999.90;;;;;;;27.88;39.99;101914.34;15772322;28;20469;-57
2021/09/06 14:10:24;;;;;;;1999.90;999.90;;;;;;;27.29;40.26;101914.38;15783208;28;20094;-58
2021/09/06 14:17:57;;;;;;;1999.90;999.90;;;;;;;27.97;41.42;101899.50;15787753;28;20562;-60
2021/09/06 14:25:30;;;;;;;1999.90;999.90;;;;;;;28.02;40.13;101899.03;15815006;28;20036;-59
2021/09/06 14:33:03;;;;;;;1999.90;999.90;;;;;;;27.48;41.48;101899.50;15762549;28;20048;-56
2021/09/06 14:40:37;;;;;;;1999.90;999.90;;;;;;;27.27;42.22;101889.00;15747311;28;20036;-57
2021/09/06 14:48:09;;;;;;;1999.90;999.90;;;;;;;26.58;42.63;101892.66;15758856;28;20075;-58
2021/09/06 14:55:43;;;;;;;;;;;;;;;26.11;45.19;101894.81;15784546;28;20047;-57
2021/09/06 15:03:16;;;;;;;1999.90;999.90;;;;;;;25.85;42.98;101890.38;15740074;28;19924;-57
2021/09/06 15:10:50;;;;;;;1999.90;999.90;;;;;;;26.08;43.69;101889.94;15765920;28;20043;-57
2021/09/06 15:18:22;;;;;;;1999.90;999.90;;;;;;;26.17;45.69;101886.66;15773711;28;20040;-60
2021/09/06 15:26:00;;;;;;;1999.90;999.90;;;;;;;25.85;46.24;101890.38;15752365;28;20131;-58
2021/09/06 15:33:33;;;;;;;1999.90;999.90;;;;;;;25.87;45.72;101881.41;15775909;28;20139;-59
2021/09/06 15:41:08;;;;;;;1999.90;999.90;;;;;;;25.68;46.83;101885.47;15785002;28;20072;-56
2021/09/06 15:48:41;;;;;;;1999.90;999.90;;;;;;;25.38;47.18;101896.47;15766093;28;20127;-58
2021/09/06 15:56:17;;;;;;;1999.90;999.90;;;;;;;25.15;48.77;101877.69;15765375;28;20408;-59
2021/09/06 16:03:49;;;;;;;1999.90;999.90;;;;;;;25.12;50.93;101880.53;15741711;28;20747;-58
2021/09/06 16:11:23;;;;;;;;;;;;;;;24.95;51.57;101871.50;15789886;28;20051;-58
2021/09/06 16:18:55;;;;;;;1999.90;999.90;;;;;;;24.95;54.59;101859.25;15775488;28;19924;-55
2021/09/06 16:26:29;;;;;;;1999.90;999.90;;;;;;;24.82;50.54;101867.41;15785156;28;20054;-59
2021/09/06 16:34:01;;;;;;;1999.90;999.90;;;;;;;24.64;51.01;101858.75;15778427;28;20064;-59
2021/09/06 16:41:35;;;;;;;1999.90;999.90;;;;;;;24.51;54.58;101856.69;15786934;28;20040;-56
2021/09/06 16:49:07;;;;;;;1999.90;999.90;;;;;;;24.34;54.38;101852.53;15752402;28;20043;-60
2021/09/06 16:56:41;;;;;;;1999.90;999.90;;;;;;;24.11;54.27;101836.50;15781171;28;20060;-59
2021/09/06 17:04:13;;;;;;;1999.90;999.90;;;;;;;23.91;53.88;101818.06;15788125;28;20044;-57
2021/09/06 17:11:47;;;;;;;1999.90;999.90;;;;;;;23.73;54.69;101822.84;15806060;28;20056;-57
2021/09/06 17:19:20;;;;;;;1999.90;999.90;;;;;;;23.36;55.46;101832.31;15800194;28;20648;-54
2021/09/06 17:26:53;;;;;;;1999.90;999.90;;;;;;;23.19;56.88;101813.84;15748282;28;20048;-57
2021/09/06 17:34:26;;;;;;;1999.90;999.90;;;;;;;22.78;57.24;101818.72;15770084;28;20131;-56
2021/09/06 17:42:00;;;;;;;1999.90;999.90;;;;;;;22.49;59.42;101820.41;15761253;28;20047;-57
2021/09/06 17:49:32;;;;;;;1999.90;999.90;;;;;;;22.21;60.80;101820.91;15745711;28;20044;-61
2021/09/06 17:57:06;;;;;;;1999.90;999.90;;;;;;;21.87;61.49;101817.94;15786254;28;20059;-57
2021/09/06 18:04:38;;;;;;;1999.90;999.90;;;;;;;21.66;62.05;101820.47;15776001;28;21346;-56
2021/09/06 18:12:12;;;;;;;1999.90;999.90;;;;;;;21.45;63.85;101832.31;15772571;28;20040;-61
2021/09/06 18:19:44;;;;;;;1999.90;999.90;;;;;;;21.37;63.14;101838.28;15791175;28;20047;-54
2021/09/06 18:27:19;;;;;;;1999.90;999.90;;;;;;;21.27;63.14;101840.56;15754602;28;20572;-59
2021/09/06 18:34:51;;;;;;;1999.90;999.90;;;;;;;21.18;64.11;101844.81;15799850;28;20048;-57
2021/09/06 18:42:25;;;;;;;1999.90;999.90;;;;;;;21.21;64.64;101852.56;15760461;28;20127;-57
2021/09/06 18:49:57;;;;;;;1999.90;999.90;;;;;;;21.08;64.50;101849.09;15776750;28;20382;-59
2021/09/06 18:57:31;;;;;;;1999.90;999.90;;;;;;;21.04;65.45;101848.19;15781967;28;20494;-58
2021/09/06 19:05:04;;;;;;;1999.90;999.90;;;;;;;20.85;65.66;101848.28;15781311;28;20562;-61
2021/09/06 19:12:40;;;;;;;1999.90;999.90;;;;;;;20.80;66.27;101868.41;15759998;28;20470;-61
2021/09/06 19:20:14;;;;;;;1999.90;999.90;;;;;;;20.67;66.74;101870.59;15800000;28;20403;-59
2021/09/06 19:27:48;;;;;;;1999.90;999.90;;;;;;;20.67;66.56;101882.78;15752868;28;20413;-59
2021/09/06 19:35:22;;;;;;;1999.90;999.90;;;;;;;20.57;67.20;101883.38;15778672;28;20451;-58
2021/09/06 19:42:56;;;;;;;1999.90;999.90;;;;;;;20.46;67.57;101888.00;15795307;28;20033;-61
2021/09/06 19:50:28;;;;;;;1999.90;999.90;;;;;;;20.53;68.43;101887.31;15791209;28;20055;-56
2021/09/06 19:58:03;;;;;;;1999.90;999.90;;;;;;;20.47;68.78;101881.13;15786771;28;20044;-58
2021/09/06 20:05:35;;;;;;;1999.90;999.90;;;;;;;20.45;69.05;101894.88;15796801;28;20094;-57
2021/09/06 20:13:09;;;;;;;1999.90;999.90;;;;;;;20.42;69.21;101892.72;15781242;28;20493;-58
2021/09/06 20:20:41;;;;;;;1999.90;999.90;;;;;;;20.38;69.06;101884.16;15790019;28;20070;-57
2021/09/06 20:28:15;;;;;;;1999.90;999.90;;;;;;;20.21;69.35;101866.75;15782641;28;20068;-56
2021/09/06 20:35:48;;;;;;;1999.90;999.90;;;;;;;19.97;69.30;101877.16;15830939;27;20044;-58
2021/09/06 20:43:25;;;;;;;1999.90;999.90;;;;;;;19.83;70.18;101903.16;15792815;28;20068;-60
2021/09/06 20:50:58;;;;;;;1999.90;999.90;;;;;;;19.72;70.36;101892.75;15801458;28;20040;-58
2021/09/06 20:58:31;;;;;;;1999.90;999.90;;;;;;;19.77;70.18;101901.78;15779379;28;20036;-55
2021/09/06 21:06:04;;;;;;;1999.90;999.90;;;;;;;19.76;70.26;101888.00;15793278;28;20040;-58
2021/09/06 21:13:38;;;;;;;1999.90;999.90;;;;;;;19.76;69.67;101871.81;15807631;28;20090;-56
2021/09/06 21:21:10;;;;;;;1999.90;999.90;;;;;;;19.89;68.88;101884.66;15774329;28;20058;-57
2021/09/06 21:28:44;;;;;;;1999.90;999.90;;;;;;;19.71;69.74;101893.94;15794765;28;20377;-57
2021/09/06 21:36:16;;;;;;;1999.90;999.90;;;;;;;19.53;70.03;101891.44;15761166;28;20049;-59
2021/09/06 21:43:50;;;;;;;1999.90;999.90;;;;;;;19.51;70.46;101913.66;15806231;28;20404;-59
2021/09/06 21:51:23;;;;;;;1999.90;999.90;;;;;;;19.43;70.68;101917.47;15775236;28;20127;-56
2021/09/06 21:58:56;;;;;;;1999.90;999.90;;;;;;;19.47;70.33;101917.56;15749265;28;20094;-55
2021/09/06 22:06:29;;;;;;;1999.90;999.90;;;;;;;19.49;69.71;101918.84;15758609;28;20052;-57
2021/09/06 22:14:03;;;;;;;1999.90;999.90;;;;;;;19.54;69.53;101920.59;15805320;28;20047;-56
2021/09/06 22:21:35;;;;;;;1999.90;999.90;;;;;;;19.47;69.71;101906.25;15777600;28;20048;-57
2021/09/06 22:29:09;;;;;;;1999.90;999.90;;;;;;;19.52;69.42;101897.47;15781433;28;20528;-55
2021/09/06 22:36:41;;;;;;;1999.90;999.90;;;;;;;19.42;69.68;101895.19;15778813;28;20045;-55
2021/09/06 22:44:15;;;;;;;1999.90;999.90;;;;;;;19.42;69.72;101889.53;15803263;28;20638;-59
2021/09/06 22:51:47;;;;;;;1999.90;999.90;;;;;;;19.40;69.06;101904.06;15761712;28;20405;-54
2021/09/06 22:59:26;;;;;;;1999.90;999.90;;;;;;;19.41;69.74;101900.03;15761819;28;20509;-57
2021/09/06 23:06:59;;;;;;;1999.90;999.90;;;;;;;19.19;69.83;101895.00;15757955;28;20490;-60
2021/09/06 23:14:34;;;;;;;1999.90;999.90;;;;;;;19.14;70.47;101889.59;15791125;28;20044;-60
2021/09/06 23:22:12;;;;;;;1999.90;999.90;;;;;;;19.25;69.71;101887.88;15757761;28;20434;-57
2021/09/06 23:29:45;;;;;;;1999.90;999.90;;;;;;;19.26;70.39;101879.03;15746498;28;20381;-57
2021/09/06 23:37:17;;;;;;;1999.90;999.90;;;;;;;19.20;70.16;101891.00;15775949;28;20131;-61
2021/09/06 23:44:51;;;;;;;1999.90;999.90;;;;;;;19.20;70.74;101893.81;15754665;28;20044;-60
2021/09/06 23:52:24;;;;;;;1999.90;999.90;;;;;;;19.18;70.76;101894.19;15789677;28;20051;-55
2021/09/06 23:59:57;;;;;;;1999.90;999.90;;;;;;;19.11;71.03;101888.34;15768064;28;20040;-59
